sensor_id;sensor_type;location;lat;lon;timestamp;P1;durP1;ratioP1;P2;durP2;ratioP2
4527;SDS011;62320;51.520;6.818;2022-10-31T00:06:40;18.15;;;7.75;;
4527;SDS011;62320;51.520;6.818;2022-10-31T00:16:41;14.77;;;6.90;;
4527;SDS011;62320;51.520;6.818;2022-10-31T00:26:43;18.03;;;7.20;;
4527;SDS011;62320;51.520;6.818;2022-10-31T00:36:44;13.60;;;6.90;;
4527;SDS011;62320;51.520;6.818;2022-10-31T00:46:45;17.73;;;6.97;;
4527;SDS011;62320;51.520;6.818;2022-10-31T00:56:47;15.00;;;7.07;;
4527;SDS011;62320;51.520;6.818;2022-10-31T01:06:48;20.47;;;7.63;;
4527;SDS011;62320;51.520;6.818;2022-10-31T01:16:50;17.60;;;7.50;;
4527;SDS011;62320;51.520;6.818;2022-10-31T01:26:51;15.00;;;7.10;;
4527;SDS011;62320;51.520;6.818;2022-10-31T01:36:52;18.07;;;7.60;;
4527;SDS011;62320;51.520;6.818;2022-10-31T01:46:58;17.95;;;7.70;;
4527;SDS011;62320;51.520;6.818;2022-10-31T01:57:06;14.93;;;7.17;;
4527;SDS011;62320;51.520;6.818;2022-10-31T02:07:15;20.23;;;8.13;;
4527;SDS011;62320;51.520;6.818;2022-10-31T02:17:20;17.17;;;8.10;;
4527;SDS011;62320;51.520;6.818;2022-10-31T02:37:55;19.17;;;8.30;;
4527;SDS011;62320;51.520;6.818;2022-10-31T02:48:07;17.60;;;7.70;;
4527;SDS011;62320;51.520;6.818;2022-10-31T02:58:14;19.15;;;8.52;;
4527;SDS011;62320;51.520;6.818;2022-10-31T03:19:09;19.80;;;7.80;;
4527;SDS011;62320;51.520;6.818;2022-10-31T03:29:15;15.40;;;8.13;;
4527;SDS011;62320;51.520;6.818;2022-10-31T03:39:20;18.03;;;8.23;;
4527;SDS011;62320;51.520;6.818;2022-10-31T03:49:23;25.20;;;10.20;;
4527;SDS011;62320;51.520;6.818;2022-10-31T03:59:35;20.38;;;9.25;;
4527;SDS011;62320;51.520;6.818;2022-10-31T04:09:45;18.48;;;8.52;;
4527;SDS011;62320;51.520;6.818;2022-10-31T04:19:48;20.47;;;9.00;;
4527;SDS011;62320;51.520;6.818;2022-10-31T04:29:50;20.27;;;9.77;;
4527;SDS011;62320;51.520;6.818;2022-10-31T04:39:51;22.42;;;10.23;;
4527;SDS011;62320;51.520;6.818;2022-10-31T04:49:52;39.37;;;15.57;;
4527;SDS011;62320;51.520;6.818;2022-10-31T04:59:54;31.90;;;13.93;;
4527;SDS011;62320;51.520;6.818;2022-10-31T05:09:55;28.75;;;11.57;;
4527;SDS011;62320;51.520;6.818;2022-10-31T05:19:56;26.17;;;10.87;;
4527;SDS011;62320;51.520;6.818;2022-10-31T05:29:58;23.17;;;10.60;;
4527;SDS011;62320;51.520;6.818;2022-10-31T05:40:01;23.33;;;9.77;;
4527;SDS011;62320;51.520;6.818;2022-10-31T05:50:09;21.38;;;9.13;;
4527;SDS011;62320;51.520;6.818;2022-10-31T06:00:11;20.20;;;10.20;;
4527;SDS011;62320;51.520;6.818;2022-10-31T06:10:13;21.17;;;9.30;;
4527;SDS011;62320;51.520;6.818;2022-10-31T06:20:14;20.95;;;9.32;;
4527;SDS011;62320;51.520;6.818;2022-10-31T06:30:16;20.07;;;10.23;;
4527;SDS011;62320;51.520;6.818;2022-10-31T06:40:17;24.07;;;10.27;;
4527;SDS011;62320;51.520;6.818;2022-10-31T06:50:20;22.63;;;10.35;;
4527;SDS011;62320;51.520;6.818;2022-10-31T07:00:24;30.40;;;10.77;;
4527;SDS011;62320;51.520;6.818;2022-10-31T07:10:27;28.07;;;13.03;;
4527;SDS011;62320;51.520;6.818;2022-10-31T07:20:34;26.55;;;12.70;;
4527;SDS011;62320;51.520;6.818;2022-10-31T07:30:36;28.58;;;12.10;;
4527;SDS011;62320;51.520;6.818;2022-10-31T07:40:39;24.17;;;11.60;;
4527;SDS011;62320;51.520;6.818;2022-10-31T07:50:41;34.87;;;13.27;;
4527;SDS011;62320;51.520;6.818;2022-10-31T08:00:43;33.13;;;14.27;;
4527;SDS011;62320;51.520;6.818;2022-10-31T08:10:46;30.07;;;13.40;;
4527;SDS011;62320;51.520;6.818;2022-10-31T08:20:47;33.83;;;14.67;;
4527;SDS011;62320;51.520;6.818;2022-10-31T08:30:48;35.00;;;15.18;;
4527;SDS011;62320;51.520;6.818;2022-10-31T08:40:50;36.30;;;15.07;;
4527;SDS011;62320;51.520;6.818;2022-10-31T08:50:51;41.53;;;15.77;;
4527;SDS011;62320;51.520;6.818;2022-10-31T09:00:59;33.65;;;14.32;;
4527;SDS011;62320;51.520;6.818;2022-10-31T09:11:02;35.00;;;14.82;;
4527;SDS011;62320;51.520;6.818;2022-10-31T09:21:04;34.20;;;14.43;;
4527;SDS011;62320;51.520;6.818;2022-10-31T09:31:06;37.57;;;15.73;;
4527;SDS011;62320;51.520;6.818;2022-10-31T09:41:14;33.97;;;15.25;;
4527;SDS011;62320;51.520;6.818;2022-10-31T09:51:22;35.40;;;15.40;;
4527;SDS011;62320;51.520;6.818;2022-10-31T10:01:31;45.30;;;15.00;;
4527;SDS011;62320;51.520;6.818;2022-10-31T10:11:50;37.95;;;16.92;;
4527;SDS011;62320;51.520;6.818;2022-10-31T10:32:27;35.37;;;14.73;;
4527;SDS011;62320;51.520;6.818;2022-10-31T10:42:31;34.03;;;13.80;;
4527;SDS011;62320;51.520;6.818;2022-10-31T10:53:00;31.60;;;14.65;;
4527;SDS011;62320;51.520;6.818;2022-10-31T11:03:09;33.53;;;14.77;;
4527;SDS011;62320;51.520;6.818;2022-10-31T11:23:17;34.97;;;14.07;;
4527;SDS011;62320;51.520;6.818;2022-10-31T11:33:22;38.53;;;15.77;;
4527;SDS011;62320;51.520;6.818;2022-10-31T11:43:55;31.70;;;11.93;;
4527;SDS011;62320;51.520;6.818;2022-10-31T11:54:00;29.67;;;12.27;;
4527;SDS011;62320;51.520;6.818;2022-10-31T12:04:07;28.60;;;11.77;;
4527;SDS011;62320;51.520;6.818;2022-10-31T12:55:52;24.63;;;11.30;;
4527;SDS011;62320;51.520;6.818;2022-10-31T13:06:05;23.95;;;10.38;;
4527;SDS011;62320;51.520;6.818;2022-10-31T13:16:15;18.63;;;9.10;;
4527;SDS011;62320;51.520;6.818;2022-10-31T13:26:23;21.00;;;8.87;;
4527;SDS011;62320;51.520;6.818;2022-10-31T13:36:50;21.88;;;8.02;;
4527;SDS011;62320;51.520;6.818;2022-10-31T13:46:58;18.10;;;8.17;;
4527;SDS011;62320;51.520;6.818;2022-10-31T13:56:59;20.27;;;8.43;;
4527;SDS011;62320;51.520;6.818;2022-10-31T14:07:05;19.80;;;7.97;;
4527;SDS011;62320;51.520;6.818;2022-10-31T14:17:14;14.60;;;7.18;;
4527;SDS011;62320;51.520;6.818;2022-10-31T14:47:49;18.98;;;8.27;;
4527;SDS011;62320;51.520;6.818;2022-10-31T14:58:08;20.97;;;8.50;;
4527;SDS011;62320;51.520;6.818;2022-10-31T15:08:13;21.47;;;8.77;;
4527;SDS011;62320;51.520;6.818;2022-10-31T15:18:26;20.80;;;9.15;;
4527;SDS011;62320;51.520;6.818;2022-10-31T15:28:29;18.27;;;7.40;;
4527;SDS011;62320;51.520;6.818;2022-10-31T15:38:32;18.13;;;7.33;;
4527;SDS011;62320;51.520;6.818;2022-10-31T15:48:34;18.05;;;7.53;;
4527;SDS011;62320;51.520;6.818;2022-10-31T15:58:43;14.32;;;5.90;;
4527;SDS011;62320;51.520;6.818;2022-10-31T16:08:47;13.87;;;5.13;;
4527;SDS011;62320;51.520;6.818;2022-10-31T16:18:50;12.23;;;5.03;;
4527;SDS011;62320;51.520;6.818;2022-10-31T16:28:54;12.30;;;5.10;;
4527;SDS011;62320;51.520;6.818;2022-10-31T16:39:05;15.97;;;5.60;;
4527;SDS011;62320;51.520;6.818;2022-10-31T16:49:08;12.57;;;5.07;;
4527;SDS011;62320;51.520;6.818;2022-10-31T16:59:10;16.15;;;7.00;;
4527;SDS011;62320;51.520;6.818;2022-10-31T17:09:16;14.83;;;7.13;;
4527;SDS011;62320;51.520;6.818;2022-10-31T17:19:17;13.77;;;6.83;;
4527;SDS011;62320;51.520;6.818;2022-10-31T17:29:19;17.30;;;7.75;;
4527;SDS011;62320;51.520;6.818;2022-10-31T17:39:20;19.20;;;9.48;;
4527;SDS011;62320;51.520;6.818;2022-10-31T17:49:23;18.33;;;9.00;;
4527;SDS011;62320;51.520;6.818;2022-10-31T17:59:24;18.87;;;8.47;;
4527;SDS011;62320;51.520;6.818;2022-10-31T18:09:27;21.08;;;8.43;;
4527;SDS011;62320;51.520;6.818;2022-10-31T18:19:29;14.57;;;6.30;;
4527;SDS011;62320;51.520;6.818;2022-10-31T18:29:30;14.67;;;5.50;;
4527;SDS011;62320;51.520;6.818;2022-10-31T18:39:31;12.20;;;4.13;;
4527;SDS011;62320;51.520;6.818;2022-10-31T18:49:33;12.77;;;4.23;;
4527;SDS011;62320;51.520;6.818;2022-10-31T18:59:34;12.60;;;3.67;;
4527;SDS011;62320;51.520;6.818;2022-10-31T19:09:36;9.43;;;2.90;;
4527;SDS011;62320;51.520;6.818;2022-10-31T19:19:37;7.78;;;2.80;;
4527;SDS011;62320;51.520;6.818;2022-10-31T19:29:39;9.10;;;3.17;;
4527;SDS011;62320;51.520;6.818;2022-10-31T19:39:42;9.53;;;3.20;;
4527;SDS011;62320;51.520;6.818;2022-10-31T19:49:44;11.52;;;3.17;;
4527;SDS011;62320;51.520;6.818;2022-10-31T19:59:46;16.07;;;3.40;;
4527;SDS011;62320;51.520;6.818;2022-10-31T20:09:47;11.17;;;3.70;;
4527;SDS011;62320;51.520;6.818;2022-10-31T20:19:48;12.02;;;3.55;;
4527;SDS011;62320;51.520;6.818;2022-10-31T20:29:50;10.43;;;3.23;;
4527;SDS011;62320;51.520;6.818;2022-10-31T20:39:51;9.30;;;3.63;;
4527;SDS011;62320;51.520;6.818;2022-10-31T20:49:56;9.70;;;3.72;;
4527;SDS011;62320;51.520;6.818;2022-10-31T20:59:58;8.05;;;3.60;;
4527;SDS011;62320;51.520;6.818;2022-10-31T21:09:59;8.40;;;3.80;;
4527;SDS011;62320;51.520;6.818;2022-10-31T21:20:00;11.70;;;4.20;;
4527;SDS011;62320;51.520;6.818;2022-10-31T21:30:02;9.07;;;3.40;;
4527;SDS011;62320;51.520;6.818;2022-10-31T21:40:04;9.70;;;3.80;;
4527;SDS011;62320;51.520;6.818;2022-10-31T21:50:06;8.50;;;3.47;;
4527;SDS011;62320;51.520;6.818;2022-10-31T22:00:08;7.55;;;3.20;;
4527;SDS011;62320;51.520;6.818;2022-10-31T22:10:10;9.57;;;3.80;;
4527;SDS011;62320;51.520;6.818;2022-10-31T22:20:12;10.53;;;3.77;;
4527;SDS011;62320;51.520;6.818;2022-10-31T22:30:13;7.32;;;2.95;;
4527;SDS011;62320;51.520;6.818;2022-10-31T22:40:15;10.82;;;4.13;;
4527;SDS011;62320;51.520;6.818;2022-10-31T22:50:16;8.43;;;3.57;;
4527;SDS011;62320;51.520;6.818;2022-10-31T23:00:18;11.60;;;3.97;;
4527;SDS011;62320;51.520;6.818;2022-10-31T23:10:20;9.57;;;4.15;;
4527;SDS011;62320;51.520;6.818;2022-10-31T23:20:21;9.83;;;3.70;;
4527;SDS011;62320;51.520;6.818;2022-10-31T23:30:23;9.97;;;3.83;;
4527;SDS011;62320;51.520;6.818;2022-10-31T23:40:24;8.75;;;3.60;;
4527;SDS011;62320;51.520;6.818;2022-10-31T23:50:25;9.83;;;3.80;;
